Nearby METAR Reports

 

KOXC - Oxford/Waterbury, Connecticut, USA
Distance from station: SE 8mi, 12km
Updated: Thu, 30-Mar-2017 9:50am EDT
Partly cloudy
Partly cloudy
 Wind from N
Wind: N 13 mph , 20 km/h
Temperature: 39°F , 4°C
Wind Chill: 31°F , -1°C
Dew Point: 19°F , -7°C
Humidity: 45%
Barometer: 30.24 inHg , 1024 hPa
Clouds: Partly cloudy
Visibility: 10 miles , 16 km
Cloud details: Partly cloudy 25000 ft
2017/03/30 13:50 KOXC 301350Z 36011KT 10SM SCT250 04/M07 A3024
KDXR - Danbury, Connecticut, USA
Distance from station: SW 19mi, 30km
Updated: Thu, 30-Mar-2017 9:53am EDT
Clear
Clear
 Wind from N
Wind: N 9 mph , 15 km/h
Temperature: 39°F , 4°C
Wind Chill: 33°F , 1°C
Dew Point: 21°F , -6°C
Humidity: 48%
Barometer: 30.26 inHg , 1024.7 hPa
Clouds: Clear
Visibility: 10 miles , 16 km
2017/03/30 13:53 KDXR 301353Z 01008KT 10SM CLR 04/M06 A3026 RMK AO2 SLP248 T00441061
 
KMMK - Meriden, Connecticut, USA
Distance from station: E 20mi, 33km
Updated: Thu, 30-Mar-2017 9:53am EDT
Clear
Clear
 Wind from NNW
Wind: NNW 10 mph , 17 km/h
Temperature: 43°F , 6°C
Wind Chill: 37°F , 3°C
Dew Point: 19°F , -7°C
Humidity: 39%
Barometer: 30.25 inHg , 1024.4 hPa
Clouds: Clear
Visibility: 10 miles , 16 km
2017/03/30 13:53 KMMK 301353Z AUTO 34009KT 10SM CLR 06/M07 A3025 RMK AO2 SLP245 T00561067 TSNO
KBDR - Bridgeport, Connecticut, USA
Distance from station: S 27mi, 44km
Updated: Thu, 30-Mar-2017 9:52am EDT
Clear
Clear
 Wind from N
Wind: N 14 mph , 22 km/h
Temperature: 45°F , 7°C
Wind Chill: 39°F , 4°C
Dew Point: 19°F , -7°C
Humidity: 37%
Barometer: 30.26 inHg , 1024.7 hPa
Clouds: Clear
Visibility: 10 miles , 16 km
2017/03/30 13:52 KBDR 301352Z 01012KT 10SM CLR 07/M07 A3026 RMK AO2 SLP245 T00671067
 
KHVN - New Haven/Tweed, Connecticut, USA
Distance from station: SE 27mi, 44km
Updated: Thu, 30-Mar-2017 9:53am EDT
Partly cloudy
Partly cloudy
 Wind from NNE
Wind: NNE 13 mph , 20 km/h
Temperature: 41°F , 5°C
Wind Chill: 34°F , 1°C
Dew Point: 19°F , -7°C
Humidity: 42%
Barometer: 30.25 inHg , 1024.4 hPa
Clouds: Partly cloudy
Visibility: 10 miles , 16 km
Cloud details: Partly cloudy 25000 ft
2017/03/30 13:53 KHVN 301353Z 02011KT 10SM SCT250 05/M07 A3025 RMK AO2 SLP244 T00501067
KHFD - Hartford/Brainar, Connecticut, USA
Distance from station: ENE 32mi, 52km
Updated: Thu, 30-Mar-2017 9:53am EDT
Clear
Clear
 Wind from NNE
Wind: NNE 13 mph , 20 km/h, Gust: 23 mph , 37 km/h
Temperature: 39°F , 4°C
Wind Chill: 31°F , -1°C
Dew Point: 19°F , -7°C
Humidity: 45%
Barometer: 30.25 inHg , 1024.4 hPa
Clouds: Clear
Visibility: 10 miles , 16 km
2017/03/30 13:53 KHFD 301353Z 02011G20KT 10SM CLR 04/M07 A3025 RMK AO2 SLP244 T00441072
 
KPOU - Poughkeepsie, New York, USA
Distance from station: W 35mi, 56km
Updated: Thu, 30-Mar-2017 9:53am EDT
Clear
Clear
 Wind from N
Wind: N 10 mph , 17 km/h
Temperature: 39°F , 4°C
Wind Chill: 32°F , 0°C
Dew Point: 19°F , -7°C
Humidity: 45%
Barometer: 30.27 inHg , 1025.1 hPa
Clouds: Clear
Visibility: 10 miles , 16 km
2017/03/30 13:53 KPOU 301353Z 35009KT 10SM CLR 04/M07 A3027 RMK AO2 SLP249 T00391067
KBDL - Windsor Locks, Connecticut, USA
Distance from station: NE 38mi, 62km
Updated: Thu, 30-Mar-2017 9:51am EDT
Few Clouds
Few Clouds
 Wind from NNW
Wind: NNW 12 mph , 19 km/h
Temperature: 41°F , 5°C
Wind Chill: 34°F , 1°C
Dew Point: 18°F , -8°C
Humidity: 39%
Barometer: 30.25 inHg , 1024.4 hPa
Clouds: Few Clouds
Visibility: 10 miles , 16 km
Cloud details: Few Clouds 5000 ft
Few Clouds 25000 ft
2017/03/30 13:51 KBDL 301351Z 34010KT 10SM FEW050 FEW250 05/M08 A3025 RMK AO2 SLP244 T00501078
 
KSNC - Chester, Connecticut, USA
Distance from station: ESE 39mi, 63km
Updated: Fri, 24-Mar-2017 3:15am EDT
NOT Current
Mostly cloudy
Mostly cloudy
 Wind from calm
Wind: Calm
Temperature: 32°F , 0°C
Dew Point: 23°F , -5°C
Humidity: 69%
Barometer: 30.51 inHg , 1033.2 hPa
Clouds: Mostly cloudy
Visibility: 10 miles , 16 km
Cloud details: Mostly cloudy 12000 ft
2017/03/24 07:15 KSNC 240715Z AUTO 00000KT 10SM BKN120 M00/M05 A3051 RMK AO2
KHPN - White Plains, New York, USA
Distance from station: SW 42mi, 67km
Updated: Thu, 30-Mar-2017 9:56am EDT
Clear
Clear
 Wind from N
Wind: N 12 mph , 19 km/h
Temperature: 41°F , 5°C
Wind Chill: 34°F , 1°C
Dew Point: 21°F , -6°C
Humidity: 45%
Barometer: 30.23 inHg , 1023.7 hPa
Clouds: Clear
Visibility: 10 miles , 16 km
2017/03/30 13:56 KHPN 301356Z 36010KT 10SM CLR 05/M06 A3023 RMK AO2 SLP244 T00501061
 
KSWF - Newburgh/Stewart, New York, USA
Distance from station: W 45mi, 72km
Updated: Thu, 30-Mar-2017 9:45am EDT
Partly cloudy
Partly cloudy
 Wind from NE
Wind: NE 16 mph , 26 km/h
Temperature: 39°F , 4°C
Wind Chill: 30°F , -1°C
Dew Point: 23°F , -5°C
Humidity: 52%
Barometer: 30.27 inHg , 1025.1 hPa
Clouds: Partly cloudy
Visibility: 20 miles , 32 km
Cloud details: Partly cloudy 10000 ft
2017/03/30 13:45 KSWF 301345Z 04014KT 20SM SCT100 04/M05 A3027
KBAF - Westfield, Massachusetts, USA
Distance from station: NNE 50mi, 80km
Updated: Thu, 30-Mar-2017 9:53am EDT
Clear
Clear
 Wind from NW
Wind: NW 9 mph , 15 km/h
Temperature: 39°F , 4°C
Wind Chill: 33°F , 1°C
Dew Point: 18°F , -8°C
Humidity: 42%
Barometer: 30.24 inHg , 1024 hPa
Clouds: Clear
Visibility: 10 miles , 16 km
2017/03/30 13:53 KBAF 301353Z 31008KT 10SM CLR 04/M08 A3024 RMK AO2 SLP244 T00441078